sensor_id;sensor_type;location;lat;lon;timestamp;P1;durP1;ratioP1;P2;durP2;ratioP2
3074;SDS011;1548;51.716;8.748;2022-11-20T00:01:11;470.23;;;79.93;;
3074;SDS011;1548;51.716;8.748;2022-11-20T00:03:45;123.13;;;60.60;;
3074;SDS011;1548;51.716;8.748;2022-11-20T00:06:11;195.87;;;37.00;;
3074;SDS011;1548;51.716;8.748;2022-11-20T00:08:39;300.60;;;35.77;;
3074;SDS011;1548;51.716;8.748;2022-11-20T00:11:06;185.80;;;22.07;;
3074;SDS011;1548;51.716;8.748;2022-11-20T00:13:33;346.80;;;43.87;;
3074;SDS011;1548;51.716;8.748;2022-11-20T00:15:59;309.90;;;38.53;;
3074;SDS011;1548;51.716;8.748;2022-11-20T00:18:27;419.43;;;52.20;;
3074;SDS011;1548;51.716;8.748;2022-11-20T00:20:53;461.00;;;83.40;;
3074;SDS011;1548;51.716;8.748;2022-11-20T00:23:19;95.93;;;10.80;;
3074;SDS011;1548;51.716;8.748;2022-11-20T00:25:44;458.77;;;90.83;;
3074;SDS011;1548;51.716;8.748;2022-11-20T00:28:10;448.70;;;114.90;;
3074;SDS011;1548;51.716;8.748;2022-11-20T00:30:36;420.33;;;55.63;;
3074;SDS011;1548;51.716;8.748;2022-11-20T00:33:01;457.90;;;58.17;;
3074;SDS011;1548;51.716;8.748;2022-11-20T00:35:27;420.17;;;70.13;;
3074;SDS011;1548;51.716;8.748;2022-11-20T00:37:52;386.63;;;48.17;;
3074;SDS011;1548;51.716;8.748;2022-11-20T00:40:18;183.73;;;61.43;;
3074;SDS011;1548;51.716;8.748;2022-11-20T00:42:44;184.33;;;24.17;;
3074;SDS011;1548;51.716;8.748;2022-11-20T00:45:09;127.63;;;32.10;;
3074;SDS011;1548;51.716;8.748;2022-11-20T00:47:35;142.97;;;54.07;;
3074;SDS011;1548;51.716;8.748;2022-11-20T00:50:00;184.73;;;41.67;;
3074;SDS011;1548;51.716;8.748;2022-11-20T00:52:26;122.00;;;56.87;;
3074;SDS011;1548;51.716;8.748;2022-11-20T00:54:52;190.20;;;75.07;;
3074;SDS011;1548;51.716;8.748;2022-11-20T00:57:17;24.63;;;3.57;;
3074;SDS011;1548;51.716;8.748;2022-11-20T00:59:43;94.87;;;45.93;;
3074;SDS011;1548;51.716;8.748;2022-11-20T01:02:08;92.60;;;55.00;;
3074;SDS011;1548;51.716;8.748;2022-11-20T01:04:34;52.70;;;8.00;;
3074;SDS011;1548;51.716;8.748;2022-11-20T01:07:00;312.70;;;38.33;;
3074;SDS011;1548;51.716;8.748;2022-11-20T01:09:25;406.87;;;50.37;;
3074;SDS011;1548;51.716;8.748;2022-11-20T01:11:51;455.20;;;62.73;;
3074;SDS011;1548;51.716;8.748;2022-11-20T01:14:17;419.00;;;53.77;;
3074;SDS011;1548;51.716;8.748;2022-11-20T01:16:49;414.90;;;51.10;;
3074;SDS011;1548;51.716;8.748;2022-11-20T01:19:17;417.67;;;52.07;;
3074;SDS011;1548;51.716;8.748;2022-11-20T01:21:45;387.93;;;48.70;;
3074;SDS011;1548;51.716;8.748;2022-11-20T01:24:13;419.67;;;53.83;;
3074;SDS011;1548;51.716;8.748;2022-11-20T01:26:41;420.00;;;52.00;;
3074;SDS011;1548;51.716;8.748;2022-11-20T01:29:14;425.47;;;53.67;;
3074;SDS011;1548;51.716;8.748;2022-11-20T01:31:45;418.40;;;52.47;;
3074;SDS011;1548;51.716;8.748;2022-11-20T01:34:14;409.17;;;50.33;;
3074;SDS011;1548;51.716;8.748;2022-11-20T01:36:43;408.20;;;50.93;;
3074;SDS011;1548;51.716;8.748;2022-11-20T01:39:11;409.17;;;50.50;;
3074;SDS011;1548;51.716;8.748;2022-11-20T01:41:38;415.70;;;50.13;;
3074;SDS011;1548;51.716;8.748;2022-11-20T01:47:47;431.50;;;51.10;;
3074;SDS011;1548;51.716;8.748;2022-11-20T01:50:16;419.83;;;52.63;;
3074;SDS011;1548;51.716;8.748;2022-11-20T01:52:51;402.37;;;52.23;;
3074;SDS011;1548;51.716;8.748;2022-11-20T01:55:26;418.10;;;55.53;;
3074;SDS011;1548;51.716;8.748;2022-11-20T01:57:55;425.60;;;55.93;;
3074;SDS011;1548;51.716;8.748;2022-11-20T02:00:22;414.67;;;56.03;;
3074;SDS011;1548;51.716;8.748;2022-11-20T02:02:51;414.07;;;56.27;;
3074;SDS011;1548;51.716;8.748;2022-11-20T02:05:22;412.50;;;54.40;;
3074;SDS011;1548;51.716;8.748;2022-11-20T02:07:51;417.87;;;56.43;;
3074;SDS011;1548;51.716;8.748;2022-11-20T02:10:19;414.43;;;54.67;;
3074;SDS011;1548;51.716;8.748;2022-11-20T02:12:45;412.77;;;54.80;;
3074;SDS011;1548;51.716;8.748;2022-11-20T02:15:30;415.87;;;56.30;;
3074;SDS011;1548;51.716;8.748;2022-11-20T02:17:57;417.03;;;55.20;;
3074;SDS011;1548;51.716;8.748;2022-11-20T02:20:23;416.63;;;56.47;;
3074;SDS011;1548;51.716;8.748;2022-11-20T02:22:59;414.93;;;55.87;;
3074;SDS011;1548;51.716;8.748;2022-11-20T02:25:26;424.27;;;58.50;;
3074;SDS011;1548;51.716;8.748;2022-11-20T02:27:55;416.10;;;56.27;;
3074;SDS011;1548;51.716;8.748;2022-11-20T02:30:20;414.87;;;52.43;;
3074;SDS011;1548;51.716;8.748;2022-11-20T02:32:46;424.53;;;56.97;;
3074;SDS011;1548;51.716;8.748;2022-11-20T02:37:43;414.20;;;52.73;;
3074;SDS011;1548;51.716;8.748;2022-11-20T02:40:12;413.30;;;52.63;;
3074;SDS011;1548;51.716;8.748;2022-11-20T02:42:38;415.00;;;53.37;;
3074;SDS011;1548;51.716;8.748;2022-11-20T02:45:04;354.67;;;50.63;;
3074;SDS011;1548;51.716;8.748;2022-11-20T02:47:30;413.97;;;52.67;;
3074;SDS011;1548;51.716;8.748;2022-11-20T02:49:56;414.17;;;52.40;;
3074;SDS011;1548;51.716;8.748;2022-11-20T02:52:22;415.20;;;53.37;;
3074;SDS011;1548;51.716;8.748;2022-11-20T02:54:47;423.67;;;54.50;;
3074;SDS011;1548;51.716;8.748;2022-11-20T02:57:13;414.37;;;52.07;;
3074;SDS011;1548;51.716;8.748;2022-11-20T02:59:39;413.90;;;52.87;;
3074;SDS011;1548;51.716;8.748;2022-11-20T03:02:04;413.47;;;51.90;;
3074;SDS011;1548;51.716;8.748;2022-11-20T03:04:30;415.63;;;52.30;;
3074;SDS011;1548;51.716;8.748;2022-11-20T03:06:56;414.93;;;51.80;;
3074;SDS011;1548;51.716;8.748;2022-11-20T03:09:21;410.30;;;50.80;;
3074;SDS011;1548;51.716;8.748;2022-11-20T03:11:47;414.00;;;49.93;;
3074;SDS011;1548;51.716;8.748;2022-11-20T03:14:13;413.77;;;49.97;;
3074;SDS011;1548;51.716;8.748;2022-11-20T03:16:39;421.97;;;54.20;;
3074;SDS011;1548;51.716;8.748;2022-11-20T03:19:05;415.40;;;50.40;;
3074;SDS011;1548;51.716;8.748;2022-11-20T03:21:32;415.20;;;51.10;;
3074;SDS011;1548;51.716;8.748;2022-11-20T03:23:58;417.20;;;51.80;;
3074;SDS011;1548;51.716;8.748;2022-11-20T03:26:24;47.67;;;9.23;;
3074;SDS011;1548;51.716;8.748;2022-11-20T03:28:51;37.20;;;7.03;;
3074;SDS011;1548;51.716;8.748;2022-11-20T03:31:18;21.93;;;2.97;;
3074;SDS011;1548;51.716;8.748;2022-11-20T03:33:46;55.10;;;6.20;;
3074;SDS011;1548;51.716;8.748;2022-11-20T03:36:12;187.13;;;21.57;;
3074;SDS011;1548;51.716;8.748;2022-11-20T03:38:40;369.07;;;44.37;;
3074;SDS011;1548;51.716;8.748;2022-11-20T03:41:07;413.60;;;50.03;;
3074;SDS011;1548;51.716;8.748;2022-11-20T03:43:35;414.10;;;56.03;;
3074;SDS011;1548;51.716;8.748;2022-11-20T03:46:01;412.50;;;55.50;;
3074;SDS011;1548;51.716;8.748;2022-11-20T03:48:27;413.60;;;51.10;;
3074;SDS011;1548;51.716;8.748;2022-11-20T03:50:53;416.63;;;51.30;;
3074;SDS011;1548;51.716;8.748;2022-11-20T03:53:31;412.67;;;50.90;;
3074;SDS011;1548;51.716;8.748;2022-11-20T03:55:56;420.17;;;53.27;;
3074;SDS011;1548;51.716;8.748;2022-11-20T03:58:22;417.17;;;52.67;;
3074;SDS011;1548;51.716;8.748;2022-11-20T04:00:47;419.40;;;55.60;;
3074;SDS011;1548;51.716;8.748;2022-11-20T04:03:13;418.53;;;51.53;;
3074;SDS011;1548;51.716;8.748;2022-11-20T04:05:39;418.13;;;53.30;;
3074;SDS011;1548;51.716;8.748;2022-11-20T04:08:04;413.70;;;50.40;;
3074;SDS011;1548;51.716;8.748;2022-11-20T04:10:30;413.23;;;50.07;;
3074;SDS011;1548;51.716;8.748;2022-11-20T04:12:56;413.57;;;50.57;;
3074;SDS011;1548;51.716;8.748;2022-11-20T04:15:21;413.90;;;50.37;;
3074;SDS011;1548;51.716;8.748;2022-11-20T04:17:47;423.63;;;54.57;;
3074;SDS011;1548;51.716;8.748;2022-11-20T04:20:12;413.40;;;50.10;;
3074;SDS011;1548;51.716;8.748;2022-11-20T04:22:38;417.00;;;51.87;;
3074;SDS011;1548;51.716;8.748;2022-11-20T04:25:04;416.20;;;52.10;;
3074;SDS011;1548;51.716;8.748;2022-11-20T04:27:30;414.50;;;52.13;;
3074;SDS011;1548;51.716;8.748;2022-11-20T04:29:55;416.10;;;52.30;;
3074;SDS011;1548;51.716;8.748;2022-11-20T04:32:21;416.33;;;52.50;;
3074;SDS011;1548;51.716;8.748;2022-11-20T04:34:47;412.80;;;50.37;;
3074;SDS011;1548;51.716;8.748;2022-11-20T04:37:12;414.87;;;52.70;;
3074;SDS011;1548;51.716;8.748;2022-11-20T04:39:38;414.43;;;54.47;;
3074;SDS011;1548;51.716;8.748;2022-11-20T04:42:03;422.47;;;57.53;;
3074;SDS011;1548;51.716;8.748;2022-11-20T04:44:47;422.93;;;57.23;;
3074;SDS011;1548;51.716;8.748;2022-11-20T04:47:13;430.33;;;57.80;;
3074;SDS011;1548;51.716;8.748;2022-11-20T04:49:38;430.27;;;58.20;;
3074;SDS011;1548;51.716;8.748;2022-11-20T04:52:04;425.50;;;57.67;;
3074;SDS011;1548;51.716;8.748;2022-11-20T04:54:29;438.53;;;60.90;;
3074;SDS011;1548;51.716;8.748;2022-11-20T04:56:55;412.30;;;53.70;;
3074;SDS011;1548;51.716;8.748;2022-11-20T04:59:21;413.73;;;53.00;;
3074;SDS011;1548;51.716;8.748;2022-11-20T05:01:47;412.80;;;51.83;;
3074;SDS011;1548;51.716;8.748;2022-11-20T05:04:12;411.80;;;52.63;;
3074;SDS011;1548;51.716;8.748;2022-11-20T05:06:38;413.20;;;53.20;;
3074;SDS011;1548;51.716;8.748;2022-11-20T05:09:04;413.23;;;54.03;;
3074;SDS011;1548;51.716;8.748;2022-11-20T05:11:29;413.37;;;53.67;;
3074;SDS011;1548;51.716;8.748;2022-11-20T05:13:57;410.77;;;53.30;;
3074;SDS011;1548;51.716;8.748;2022-11-20T05:16:24;412.93;;;52.27;;
3074;SDS011;1548;51.716;8.748;2022-11-20T05:18:50;412.97;;;52.13;;
3074;SDS011;1548;51.716;8.748;2022-11-20T05:21:17;413.87;;;52.50;;
3074;SDS011;1548;51.716;8.748;2022-11-20T05:23:43;414.50;;;51.57;;
3074;SDS011;1548;51.716;8.748;2022-11-20T05:26:13;414.33;;;51.30;;
3074;SDS011;1548;51.716;8.748;2022-11-20T05:28:40;414.40;;;51.60;;
3074;SDS011;1548;51.716;8.748;2022-11-20T05:31:07;418.23;;;51.90;;
3074;SDS011;1548;51.716;8.748;2022-11-20T05:33:43;418.30;;;52.10;;
3074;SDS011;1548;51.716;8.748;2022-11-20T05:36:10;409.90;;;51.07;;
3074;SDS011;1548;51.716;8.748;2022-11-20T05:38:37;414.47;;;50.10;;
3074;SDS011;1548;51.716;8.748;2022-11-20T05:41:06;407.20;;;49.00;;
3074;SDS011;1548;51.716;8.748;2022-11-20T05:43:34;415.47;;;51.00;;
3074;SDS011;1548;51.716;8.748;2022-11-20T05:46:01;414.23;;;52.97;;
3074;SDS011;1548;51.716;8.748;2022-11-20T05:48:27;416.30;;;51.80;;
3074;SDS011;1548;51.716;8.748;2022-11-20T05:50:53;415.50;;;52.57;;
3074;SDS011;1548;51.716;8.748;2022-11-20T05:53:19;420.10;;;53.00;;
3074;SDS011;1548;51.716;8.748;2022-11-20T05:55:44;421.37;;;53.53;;
3074;SDS011;1548;51.716;8.748;2022-11-20T05:58:10;413.30;;;50.97;;
3074;SDS011;1548;51.716;8.748;2022-11-20T06:00:35;414.40;;;52.70;;
3074;SDS011;1548;51.716;8.748;2022-11-20T06:03:01;427.07;;;54.83;;
3074;SDS011;1548;51.716;8.748;2022-11-20T06:05:27;421.00;;;53.00;;
3074;SDS011;1548;51.716;8.748;2022-11-20T06:07:52;415.97;;;52.37;;
3074;SDS011;1548;51.716;8.748;2022-11-20T06:10:18;417.40;;;51.17;;
3074;SDS011;1548;51.716;8.748;2022-11-20T06:12:44;386.07;;;46.17;;
3074;SDS011;1548;51.716;8.748;2022-11-20T06:15:09;407.13;;;50.30;;
3074;SDS011;1548;51.716;8.748;2022-11-20T06:17:35;350.70;;;43.30;;
3074;SDS011;1548;51.716;8.748;2022-11-20T06:20:00;404.13;;;47.90;;
3074;SDS011;1548;51.716;8.748;2022-11-20T06:22:26;385.47;;;46.53;;
3074;SDS011;1548;51.716;8.748;2022-11-20T06:24:52;410.10;;;50.73;;
3074;SDS011;1548;51.716;8.748;2022-11-20T06:27:17;396.60;;;47.90;;
3074;SDS011;1548;51.716;8.748;2022-11-20T06:29:43;381.77;;;45.63;;
3074;SDS011;1548;51.716;8.748;2022-11-20T06:32:08;383.23;;;46.40;;
3074;SDS011;1548;51.716;8.748;2022-11-20T06:34:34;407.67;;;50.27;;
3074;SDS011;1548;51.716;8.748;2022-11-20T06:36:59;402.13;;;49.07;;
3074;SDS011;1548;51.716;8.748;2022-11-20T06:39:25;415.13;;;55.17;;
3074;SDS011;1548;51.716;8.748;2022-11-20T06:41:51;412.47;;;49.03;;
3074;SDS011;1548;51.716;8.748;2022-11-20T06:44:16;373.03;;;44.33;;
3074;SDS011;1548;51.716;8.748;2022-11-20T06:46:42;381.87;;;46.17;;
3074;SDS011;1548;51.716;8.748;2022-11-20T06:49:07;413.77;;;49.57;;
3074;SDS011;1548;51.716;8.748;2022-11-20T06:51:33;414.57;;;50.43;;
3074;SDS011;1548;51.716;8.748;2022-11-20T06:53:58;402.63;;;48.90;;
3074;SDS011;1548;51.716;8.748;2022-11-20T06:56:25;410.77;;;48.87;;
3074;SDS011;1548;51.716;8.748;2022-11-20T06:58:51;64.07;;;7.37;;
3074;SDS011;1548;51.716;8.748;2022-11-20T07:01:17;36.13;;;5.90;;
3074;SDS011;1548;51.716;8.748;2022-11-20T07:03:42;137.60;;;18.03;;
3074;SDS011;1548;51.716;8.748;2022-11-20T07:06:08;29.83;;;4.80;;
3074;SDS011;1548;51.716;8.748;2022-11-20T07:08:35;25.87;;;5.83;;
3074;SDS011;1548;51.716;8.748;2022-11-20T07:11:02;47.47;;;7.57;;
3074;SDS011;1548;51.716;8.748;2022-11-20T07:13:29;53.80;;;7.83;;
3074;SDS011;1548;51.716;8.748;2022-11-20T07:15:59;46.57;;;8.60;;
3074;SDS011;1548;51.716;8.748;2022-11-20T07:18:29;34.17;;;6.30;;
3074;SDS011;1548;51.716;8.748;2022-11-20T07:20:54;38.40;;;6.90;;
3074;SDS011;1548;51.716;8.748;2022-11-20T07:23:21;47.97;;;13.40;;
3074;SDS011;1548;51.716;8.748;2022-11-20T07:25:46;21.23;;;5.23;;
3074;SDS011;1548;51.716;8.748;2022-11-20T07:28:13;27.50;;;6.80;;
3074;SDS011;1548;51.716;8.748;2022-11-20T07:30:38;17.63;;;4.40;;
3074;SDS011;1548;51.716;8.748;2022-11-20T07:33:04;29.37;;;7.53;;
3074;SDS011;1548;51.716;8.748;2022-11-20T07:35:30;27.57;;;6.37;;
3074;SDS011;1548;51.716;8.748;2022-11-20T07:37:55;15.73;;;4.80;;
3074;SDS011;1548;51.716;8.748;2022-11-20T07:40:21;31.77;;;9.03;;
3074;SDS011;1548;51.716;8.748;2022-11-20T07:42:53;21.23;;;5.30;;
3074;SDS011;1548;51.716;8.748;2022-11-20T07:45:20;18.90;;;3.53;;
3074;SDS011;1548;51.716;8.748;2022-11-20T07:47:48;69.63;;;15.87;;
3074;SDS011;1548;51.716;8.748;2022-11-20T07:50:14;165.43;;;34.90;;
3074;SDS011;1548;51.716;8.748;2022-11-20T07:52:40;225.80;;;47.77;;
3074;SDS011;1548;51.716;8.748;2022-11-20T07:55:06;57.50;;;11.87;;
3074;SDS011;1548;51.716;8.748;2022-11-20T07:57:32;234.70;;;53.03;;
3074;SDS011;1548;51.716;8.748;2022-11-20T07:59:58;208.50;;;43.07;;
3074;SDS011;1548;51.716;8.748;2022-11-20T08:02:24;105.93;;;19.80;;
3074;SDS011;1548;51.716;8.748;2022-11-20T08:04:49;101.43;;;18.03;;
3074;SDS011;1548;51.716;8.748;2022-11-20T08:07:15;74.77;;;15.33;;
3074;SDS011;1548;51.716;8.748;2022-11-20T08:09:40;80.37;;;14.67;;
3074;SDS011;1548;51.716;8.748;2022-11-20T08:12:06;95.23;;;23.67;;
3074;SDS011;1548;51.716;8.748;2022-11-20T08:14:58;117.80;;;24.10;;
3074;SDS011;1548;51.716;8.748;2022-11-20T08:17:23;391.00;;;50.67;;
3074;SDS011;1548;51.716;8.748;2022-11-20T08:19:49;461.87;;;59.80;;
3074;SDS011;1548;51.716;8.748;2022-11-20T08:22:14;464.23;;;59.57;;
3074;SDS011;1548;51.716;8.748;2022-11-20T08:24:42;460.97;;;58.43;;
3074;SDS011;1548;51.716;8.748;2022-11-20T08:27:08;462.20;;;58.63;;
3074;SDS011;1548;51.716;8.748;2022-11-20T08:29:33;458.80;;;58.67;;
3074;SDS011;1548;51.716;8.748;2022-11-20T08:31:59;461.90;;;59.00;;
3074;SDS011;1548;51.716;8.748;2022-11-20T08:34:24;391.17;;;48.90;;
3074;SDS011;1548;51.716;8.748;2022-11-20T08:36:50;373.93;;;59.27;;
3074;SDS011;1548;51.716;8.748;2022-11-20T08:39:15;97.07;;;15.87;;
3074;SDS011;1548;51.716;8.748;2022-11-20T08:41:41;127.63;;;17.03;;
3074;SDS011;1548;51.716;8.748;2022-11-20T08:44:07;450.17;;;65.87;;
3074;SDS011;1548;51.716;8.748;2022-11-20T08:46:34;300.07;;;37.93;;
3074;SDS011;1548;51.716;8.748;2022-11-20T08:49:02;207.70;;;27.07;;
3074;SDS011;1548;51.716;8.748;2022-11-20T08:51:32;396.10;;;48.47;;
3074;SDS011;1548;51.716;8.748;2022-11-20T08:53:57;463.20;;;59.60;;
3074;SDS011;1548;51.716;8.748;2022-11-20T08:56:23;462.90;;;59.20;;
3074;SDS011;1548;51.716;8.748;2022-11-20T08:58:49;397.33;;;54.70;;
3074;SDS011;1548;51.716;8.748;2022-11-20T09:01:17;463.67;;;67.00;;
3074;SDS011;1548;51.716;8.748;2022-11-20T09:03:43;420.50;;;58.57;;
3074;SDS011;1548;51.716;8.748;2022-11-20T09:06:09;421.93;;;58.70;;
3074;SDS011;1548;51.716;8.748;2022-11-20T09:08:35;425.93;;;61.83;;
3074;SDS011;1548;51.716;8.748;2022-11-20T09:11:01;422.97;;;58.27;;
3074;SDS011;1548;51.716;8.748;2022-11-20T09:13:27;421.57;;;55.80;;
3074;SDS011;1548;51.716;8.748;2022-11-20T09:15:54;414.63;;;57.93;;
3074;SDS011;1548;51.716;8.748;2022-11-20T09:18:21;426.60;;;57.97;;
3074;SDS011;1548;51.716;8.748;2022-11-20T09:20:47;430.47;;;59.03;;
3074;SDS011;1548;51.716;8.748;2022-11-20T09:23:13;417.57;;;55.47;;
3074;SDS011;1548;51.716;8.748;2022-11-20T09:25:39;192.20;;;26.90;;
3074;SDS011;1548;51.716;8.748;2022-11-20T09:28:04;118.60;;;17.40;;
3074;SDS011;1548;51.716;8.748;2022-11-20T09:30:30;57.50;;;9.57;;
3074;SDS011;1548;51.716;8.748;2022-11-20T09:32:55;12.83;;;3.53;;
3074;SDS011;1548;51.716;8.748;2022-11-20T09:35:21;61.47;;;12.10;;
3074;SDS011;1548;51.716;8.748;2022-11-20T09:37:47;242.50;;;80.40;;
3074;SDS011;1548;51.716;8.748;2022-11-20T09:40:22;500.63;;;105.43;;
3074;SDS011;1548;51.716;8.748;2022-11-20T09:46:06;82.33;;;19.40;;
3074;SDS011;1548;51.716;8.748;2022-11-20T09:54:26;20.80;;;5.27;;
3074;SDS011;1548;51.716;8.748;2022-11-20T09:56:58;135.77;;;31.30;;
3074;SDS011;1548;51.716;8.748;2022-11-20T10:01:59;37.43;;;7.17;;
3074;SDS011;1548;51.716;8.748;2022-11-20T10:04:26;94.17;;;21.20;;
3074;SDS011;1548;51.716;8.748;2022-11-20T10:07:00;59.83;;;13.53;;
3074;SDS011;1548;51.716;8.748;2022-11-20T10:15:02;120.07;;;25.27;;
3074;SDS011;1548;51.716;8.748;2022-11-20T10:31:04;22.47;;;4.23;;
3074;SDS011;1548;51.716;8.748;2022-11-20T10:33:36;46.10;;;10.87;;
3074;SDS011;1548;51.716;8.748;2022-11-20T10:36:41;142.23;;;31.20;;
3074;SDS011;1548;51.716;8.748;2022-11-20T10:41:40;132.17;;;26.53;;
3074;SDS011;1548;51.716;8.748;2022-11-20T10:44:11;258.03;;;54.97;;
3074;SDS011;1548;51.716;8.748;2022-11-20T10:47:03;84.33;;;21.70;;
3074;SDS011;1548;51.716;8.748;2022-11-20T10:49:30;90.73;;;19.60;;
3074;SDS011;1548;51.716;8.748;2022-11-20T10:52:04;8.13;;;2.80;;
3074;SDS011;1548;51.716;8.748;2022-11-20T10:55:05;13.60;;;5.07;;
3074;SDS011;1548;51.716;8.748;2022-11-20T11:00:39;226.63;;;49.80;;
3074;SDS011;1548;51.716;8.748;2022-11-20T11:03:22;251.87;;;51.07;;
3074;SDS011;1548;51.716;8.748;2022-11-20T11:06:06;60.07;;;13.23;;
3074;SDS011;1548;51.716;8.748;2022-11-20T11:08:37;183.77;;;41.63;;
3074;SDS011;1548;51.716;8.748;2022-11-20T11:11:12;56.60;;;11.83;;
3074;SDS011;1548;51.716;8.748;2022-11-20T11:14:07;194.87;;;42.33;;
3074;SDS011;1548;51.716;8.748;2022-11-20T11:16:34;86.90;;;20.17;;
3074;SDS011;1548;51.716;8.748;2022-11-20T11:19:10;128.67;;;29.87;;
3074;SDS011;1548;51.716;8.748;2022-11-20T11:21:37;130.67;;;30.33;;
3074;SDS011;1548;51.716;8.748;2022-11-20T11:24:14;243.87;;;49.83;;
3074;SDS011;1548;51.716;8.748;2022-11-20T11:26:55;98.70;;;20.13;;
3074;SDS011;1548;51.716;8.748;2022-11-20T11:29:29;122.30;;;25.40;;
3074;SDS011;1548;51.716;8.748;2022-11-20T11:32:03;270.73;;;56.83;;
3074;SDS011;1548;51.716;8.748;2022-11-20T11:34:36;127.93;;;27.30;;
3074;SDS011;1548;51.716;8.748;2022-11-20T11:37:01;166.97;;;34.03;;
3074;SDS011;1548;51.716;8.748;2022-11-20T11:39:31;156.77;;;32.80;;
3074;SDS011;1548;51.716;8.748;2022-11-20T11:41:58;263.07;;;54.53;;
3074;SDS011;1548;51.716;8.748;2022-11-20T11:44:27;254.57;;;52.70;;
3074;SDS011;1548;51.716;8.748;2022-11-20T11:47:29;103.20;;;23.53;;
3074;SDS011;1548;51.716;8.748;2022-11-20T11:52:35;121.40;;;23.97;;
3074;SDS011;1548;51.716;8.748;2022-11-20T11:58:17;37.50;;;8.40;;
3074;SDS011;1548;51.716;8.748;2022-11-20T12:01:02;111.30;;;23.70;;
3074;SDS011;1548;51.716;8.748;2022-11-20T12:04:03;91.13;;;19.57;;
3074;SDS011;1548;51.716;8.748;2022-11-20T12:06:29;208.43;;;44.90;;
3074;SDS011;1548;51.716;8.748;2022-11-20T12:09:05;105.63;;;19.60;;
3074;SDS011;1548;51.716;8.748;2022-11-20T12:11:37;95.17;;;18.33;;
3074;SDS011;1548;51.716;8.748;2022-11-20T12:14:21;41.60;;;6.10;;
3074;SDS011;1548;51.716;8.748;2022-11-20T12:16:55;42.87;;;7.57;;
3074;SDS011;1548;51.716;8.748;2022-11-20T12:19:22;190.03;;;40.37;;
3074;SDS011;1548;51.716;8.748;2022-11-20T12:22:10;33.17;;;6.40;;
3074;SDS011;1548;51.716;8.748;2022-11-20T12:25:10;149.40;;;29.83;;
3074;SDS011;1548;51.716;8.748;2022-11-20T12:30:16;204.63;;;42.43;;
3074;SDS011;1548;51.716;8.748;2022-11-20T12:32:52;78.17;;;15.83;;
3074;SDS011;1548;51.716;8.748;2022-11-20T12:53:10;167.60;;;35.17;;
3074;SDS011;1548;51.716;8.748;2022-11-20T13:04:15;242.43;;;30.97;;
3074;SDS011;1548;51.716;8.748;2022-11-20T13:06:43;363.93;;;44.33;;
3074;SDS011;1548;51.716;8.748;2022-11-20T13:09:10;437.97;;;54.40;;
3074;SDS011;1548;51.716;8.748;2022-11-20T13:14:33;464.17;;;57.80;;
3074;SDS011;1548;51.716;8.748;2022-11-20T13:17:50;433.47;;;55.50;;
3074;SDS011;1548;51.716;8.748;2022-11-20T13:19:58;465.37;;;63.07;;
3074;SDS011;1548;51.716;8.748;2022-11-20T13:22:43;336.27;;;41.27;;
3074;SDS011;1548;51.716;8.748;2022-11-20T13:27:54;466.47;;;57.80;;
3074;SDS011;1548;51.716;8.748;2022-11-20T13:30:22;178.87;;;21.90;;
3074;SDS011;1548;51.716;8.748;2022-11-20T13:32:56;411.00;;;51.50;;
3074;SDS011;1548;51.716;8.748;2022-11-20T13:35:36;383.17;;;47.47;;
3074;SDS011;1548;51.716;8.748;2022-11-20T13:38:12;431.70;;;53.67;;
3074;SDS011;1548;51.716;8.748;2022-11-20T13:40:50;457.53;;;56.80;;
3074;SDS011;1548;51.716;8.748;2022-11-20T13:43:22;451.93;;;55.63;;
3074;SDS011;1548;51.716;8.748;2022-11-20T13:46:08;465.03;;;58.50;;
3074;SDS011;1548;51.716;8.748;2022-11-20T13:48:38;460.77;;;56.87;;
3074;SDS011;1548;51.716;8.748;2022-11-20T13:57:04;471.57;;;61.93;;
3074;SDS011;1548;51.716;8.748;2022-11-20T14:02:31;468.60;;;59.30;;
3074;SDS011;1548;51.716;8.748;2022-11-20T14:04:57;441.37;;;54.13;;
3074;SDS011;1548;51.716;8.748;2022-11-20T14:07:31;418.67;;;52.80;;
3074;SDS011;1548;51.716;8.748;2022-11-20T14:10:01;410.67;;;50.40;;
3074;SDS011;1548;51.716;8.748;2022-11-20T14:12:28;407.20;;;50.40;;
3074;SDS011;1548;51.716;8.748;2022-11-20T14:14:55;412.80;;;50.83;;
3074;SDS011;1548;51.716;8.748;2022-11-20T14:17:22;206.57;;;25.50;;
3074;SDS011;1548;51.716;8.748;2022-11-20T14:19:53;475.43;;;61.27;;
3074;SDS011;1548;51.716;8.748;2022-11-20T14:22:24;468.73;;;59.30;;
3074;SDS011;1548;51.716;8.748;2022-11-20T14:25:02;428.77;;;53.07;;
3074;SDS011;1548;51.716;8.748;2022-11-20T14:27:37;439.23;;;54.40;;
3074;SDS011;1548;51.716;8.748;2022-11-20T14:30:17;452.80;;;56.00;;
3074;SDS011;1548;51.716;8.748;2022-11-20T14:32:45;474.33;;;60.40;;
3074;SDS011;1548;51.716;8.748;2022-11-20T14:35:24;474.17;;;64.30;;
3074;SDS011;1548;51.716;8.748;2022-11-20T14:37:55;473.73;;;63.67;;
3074;SDS011;1548;51.716;8.748;2022-11-20T14:40:26;485.63;;;64.67;;
3074;SDS011;1548;51.716;8.748;2022-11-20T14:43:00;473.83;;;63.30;;
3074;SDS011;1548;51.716;8.748;2022-11-20T14:45:27;473.67;;;62.63;;
3074;SDS011;1548;51.716;8.748;2022-11-20T14:47:53;474.07;;;67.33;;
3074;SDS011;1548;51.716;8.748;2022-11-20T14:50:25;470.87;;;66.73;;
3074;SDS011;1548;51.716;8.748;2022-11-20T14:52:57;469.90;;;65.57;;
3074;SDS011;1548;51.716;8.748;2022-11-20T14:55:25;471.17;;;66.20;;
3074;SDS011;1548;51.716;8.748;2022-11-20T14:57:59;475.40;;;66.60;;
3074;SDS011;1548;51.716;8.748;2022-11-20T15:00:27;470.77;;;71.23;;
3074;SDS011;1548;51.716;8.748;2022-11-20T15:02:54;470.73;;;69.83;;
3074;SDS011;1548;51.716;8.748;2022-11-20T15:05:22;469.00;;;69.03;;
3074;SDS011;1548;51.716;8.748;2022-11-20T15:07:51;471.70;;;68.00;;
3074;SDS011;1548;51.716;8.748;2022-11-20T15:10:30;470.27;;;69.30;;
3074;SDS011;1548;51.716;8.748;2022-11-20T15:12:59;471.40;;;72.30;;
3074;SDS011;1548;51.716;8.748;2022-11-20T15:15:35;470.37;;;67.23;;
3074;SDS011;1548;51.716;8.748;2022-11-20T15:18:18;458.97;;;69.00;;
3074;SDS011;1548;51.716;8.748;2022-11-20T15:20:54;470.17;;;66.63;;
3074;SDS011;1548;51.716;8.748;2022-11-20T15:23:22;469.43;;;66.57;;
3074;SDS011;1548;51.716;8.748;2022-11-20T15:25:48;469.87;;;63.70;;
3074;SDS011;1548;51.716;8.748;2022-11-20T15:28:19;471.30;;;65.90;;
3074;SDS011;1548;51.716;8.748;2022-11-20T15:30:57;470.93;;;64.93;;
3074;SDS011;1548;51.716;8.748;2022-11-20T15:33:22;472.50;;;65.30;;
3074;SDS011;1548;51.716;8.748;2022-11-20T15:35:48;469.70;;;62.83;;
3074;SDS011;1548;51.716;8.748;2022-11-20T15:38:14;417.87;;;56.77;;
3074;SDS011;1548;51.716;8.748;2022-11-20T15:40:40;428.70;;;60.30;;
3074;SDS011;1548;51.716;8.748;2022-11-20T15:43:05;434.50;;;63.10;;
3074;SDS011;1548;51.716;8.748;2022-11-20T15:48:39;473.80;;;67.83;;
3074;SDS011;1548;51.716;8.748;2022-11-20T15:51:17;471.63;;;67.90;;
3074;SDS011;1548;51.716;8.748;2022-11-20T15:53:46;472.37;;;65.90;;
3074;SDS011;1548;51.716;8.748;2022-11-20T15:56:12;470.43;;;64.23;;
3074;SDS011;1548;51.716;8.748;2022-11-20T15:58:39;469.53;;;64.73;;
3074;SDS011;1548;51.716;8.748;2022-11-20T16:01:05;468.80;;;62.97;;
3074;SDS011;1548;51.716;8.748;2022-11-20T16:03:35;470.10;;;63.87;;
3074;SDS011;1548;51.716;8.748;2022-11-20T16:06:00;468.50;;;62.90;;
3074;SDS011;1548;51.716;8.748;2022-11-20T16:08:26;470.07;;;64.03;;
3074;SDS011;1548;51.716;8.748;2022-11-20T16:10:52;474.17;;;67.57;;
3074;SDS011;1548;51.716;8.748;2022-11-20T16:13:17;470.90;;;64.43;;
3074;SDS011;1548;51.716;8.748;2022-11-20T16:16:23;470.10;;;72.97;;
3074;SDS011;1548;51.716;8.748;2022-11-20T16:18:49;469.17;;;65.07;;
3074;SDS011;1548;51.716;8.748;2022-11-20T16:21:15;448.37;;;69.43;;
3074;SDS011;1548;51.716;8.748;2022-11-20T16:23:41;478.43;;;76.90;;